Aviation Digital Data Service (ADDS)

Output produced by METARs form (1959 UTC 24 July 2014)
found at http://aviationweather.gov/adds/metars/
 
KARA 241833Z 2419/2518 VRB05KT P6SM VCTS SCT035CB SCT045 
     FM250200 VRB03KT P6SM SKC